Time;durP1;ratioP1;P1;durP2;ratioP2;P2;SDS_P1;SDS_P2;PMS_P1;PMS_P2;Temp;Humidity;BMP_temperature;BMP_pressure;BME280_temperature;BME280_humidity;BME280_pressure;Samples;Min_cycle;Max_cycle;Signal;HPM_P1;HPM_P2
2023/03/05 00:00:50;;;;;;;50.38;24.05;;;;;;;;;;5089316;28;20204;-68
2023/03/05 00:03:17;;;;;;;39.28;22.50;;;;;;;;;;5084831;28;20275;-69
2023/03/05 00:05:44;;;;;;;46.35;23.35;;;;;;;;;;5085882;28;20204;-68
2023/03/05 00:08:10;;;;;;;46.60;23.55;;;;;;;;;;5084353;28;20204;-67
2023/03/05 00:10:37;;;;;;;44.58;22.20;;;;;;;;;;5085475;28;20203;-68
2023/03/05 00:13:03;;;;;;;42.33;22.17;;;;;;;;;;5089714;28;20727;-68
2023/03/05 00:15:29;;;;;;;44.25;21.90;;;;;;;;;;5087958;28;20204;-68
2023/03/05 00:17:55;;;;;;;43.83;22.13;;;;;;;;;;5089182;28;20580;-68
2023/03/05 00:20:22;;;;;;;43.10;22.00;;;;;;;;;;5089622;28;20211;-68
2023/03/05 00:22:49;;;;;;;39.13;22.60;;;;;;;;;;5099318;28;20212;-68
2023/03/05 00:25:16;;;;;;;43.67;23.05;;;;;;;;;;5090172;28;20204;-68
2023/03/05 00:27:42;;;;;;;42.22;22.08;;;;;;;;;;5087471;28;20224;-68
2023/03/05 00:30:09;;;;;;;45.38;23.73;;;;;;;;;;5089662;28;20265;-68
2023/03/05 00:32:35;;;;;;;40.60;23.70;;;;;;;;;;5089324;28;20258;-68
2023/03/05 00:35:01;;;;;;;46.10;23.20;;;;;;;;;;5090981;28;20423;-68
2023/03/05 00:37:28;;;;;;;42.17;23.50;;;;;;;;;;5095010;28;20522;-68
2023/03/05 00:39:55;;;;;;;44.10;22.88;;;;;;;;;;5093158;28;20196;-68
2023/03/05 00:42:21;;;;;;;46.05;22.70;;;;;;;;;;5104844;28;20252;-68
2023/03/05 00:44:48;;;;;;;42.28;23.27;;;;;;;;;;5104972;28;20200;-68
2023/03/05 00:47:17;;;;;;;44.03;22.77;;;;;;;;;;5104672;28;20199;-68
2023/03/05 00:49:43;;;;;;;44.33;23.83;;;;;;;;;;5104518;28;20448;-68
2023/03/05 00:52:09;;;;;;;41.55;22.85;;;;;;;;;;5104643;28;20648;-68
2023/03/05 00:54:36;;;;;;;41.85;23.65;;;;;;;;;;5104507;28;20202;-68
2023/03/05 00:57:04;;;;;;;45.10;22.13;;;;;;;;;;5104145;28;20196;-68
2023/03/05 00:59:30;;;;;;;47.05;23.00;;;;;;;;;;5104217;28;20192;-68
2023/03/05 01:01:57;;;;;;;48.15;23.45;;;;;;;;;;5104541;28;20196;-68
2023/03/05 01:04:23;;;;;;;45.78;22.92;;;;;;;;;;5104227;28;20200;-68
2023/03/05 01:06:49;;;;;;;45.75;23.35;;;;;;;;;;5104323;28;20421;-68
2023/03/05 01:09:16;;;;;;;41.72;23.27;;;;;;;;;;5103989;28;20231;-68
2023/03/05 01:11:42;;;;;;;42.53;23.92;;;;;;;;;;5103983;28;20515;-68
2023/03/05 01:14:10;;;;;;;49.97;24.38;;;;;;;;;;5104011;28;20503;-68
2023/03/05 01:16:36;;;;;;;55.83;26.52;;;;;;;;;;5104124;28;20204;-68
2023/03/05 01:19:02;;;;;;;50.20;24.35;;;;;;;;;;5103662;28;20206;-68
2023/03/05 01:21:28;;;;;;;53.25;23.92;;;;;;;;;;5104082;28;20196;-68
2023/03/05 01:23:55;;;;;;;47.53;25.55;;;;;;;;;;5102673;28;20241;-68
2023/03/05 01:26:21;;;;;;;42.35;22.88;;;;;;;;;;5104143;28;20202;-68
2023/03/05 01:28:47;;;;;;;49.38;25.25;;;;;;;;;;5103381;28;20232;-68
2023/03/05 01:31:15;;;;;;;46.22;23.60;;;;;;;;;;5103730;28;20237;-68
2023/03/05 01:33:41;;;;;;;53.65;24.70;;;;;;;;;;5104005;28;20229;-68
2023/03/05 01:36:11;;;;;;;46.35;24.50;;;;;;;;;;5103669;28;20450;-69
2023/03/05 01:38:37;;;;;;;47.38;24.55;;;;;;;;;;5103354;28;20214;-69
2023/03/05 01:41:04;;;;;;;42.03;24.33;;;;;;;;;;5103248;28;20195;-69
2023/03/05 01:43:30;;;;;;;49.35;23.85;;;;;;;;;;5103481;28;20199;-68
2023/03/05 01:46:30;;;;;;;47.42;24.88;;;;;;;;;;5103505;28;20503;-69
2023/03/05 01:49:01;;;;;;;42.17;23.65;;;;;;;;;;5040849;28;20218;-69
2023/03/05 01:51:29;;;;;;;50.28;24.38;;;;;;;;;;5040925;28;20443;-69
2023/03/05 01:53:56;;;;;;;48.08;24.40;;;;;;;;;;5070445;28;20546;-69
2023/03/05 01:56:23;;;;;;;51.20;24.38;;;;;;;;;;5103283;28;20420;-69
2023/03/05 01:58:50;;;;;;;46.50;24.55;;;;;;;;;;5103275;28;20203;-69
2023/03/05 02:01:17;;;;;;;45.20;23.50;;;;;;;;;;5103271;28;20530;-69
2023/03/05 02:03:43;;;;;;;46.40;24.25;;;;;;;;;;5102775;28;20210;-69
2023/03/05 02:06:11;;;;;;;43.92;23.33;;;;;;;;;;5103106;28;20200;-69
2023/03/05 02:08:37;;;;;;;50.28;23.98;;;;;;;;;;5102879;28;20241;-69
2023/03/05 02:11:04;;;;;;;52.55;24.27;;;;;;;;;;5102941;28;20196;-69
2023/03/05 02:13:32;;;;;;;43.70;24.55;;;;;;;;;;5103038;28;20199;-69
2023/03/05 02:16:00;;;;;;;43.97;23.58;;;;;;;;;;5102751;28;20271;-69
2023/03/05 02:18:26;;;;;;;48.13;24.30;;;;;;;;;;5102772;28;20203;-69
2023/03/05 02:20:53;;;;;;;43.85;24.02;;;;;;;;;;5102970;28;20229;-69
2023/03/05 02:23:22;;;;;;;50.35;23.83;;;;;;;;;;5102895;28;20196;-69
2023/03/05 02:25:48;;;;;;;44.88;24.27;;;;;;;;;;5102622;28;20503;-69
2023/03/05 02:28:16;;;;;;;47.10;24.75;;;;;;;;;;5102462;28;20253;-69
2023/03/05 02:30:42;;;;;;;48.15;24.50;;;;;;;;;;5102835;28;20220;-69
2023/03/05 02:33:08;;;;;;;46.17;24.35;;;;;;;;;;5102935;28;20399;-69
2023/03/05 02:35:35;;;;;;;46.58;25.38;;;;;;;;;;5102449;28;20196;-68
2023/03/05 02:38:01;;;;;;;47.08;24.95;;;;;;;;;;5102354;28;20425;-69
2023/03/05 02:40:29;;;;;;;47.03;23.55;;;;;;;;;;5102425;28;20217;-69
2023/03/05 02:42:55;;;;;;;46.47;23.95;;;;;;;;;;5102429;28;20217;-69
2023/03/05 02:45:21;;;;;;;49.33;24.33;;;;;;;;;;5102561;28;20257;-69
2023/03/05 02:47:47;;;;;;;46.25;24.77;;;;;;;;;;5102303;28;20195;-69
2023/03/05 02:50:14;;;;;;;49.35;25.38;;;;;;;;;;5102453;28;20558;-68
2023/03/05 02:52:40;;;;;;;45.42;24.10;;;;;;;;;;5102349;28;20392;-69
2023/03/05 02:55:06;;;;;;;46.47;25.30;;;;;;;;;;5102321;28;20195;-69
2023/03/05 02:57:34;;;;;;;47.30;25.23;;;;;;;;;;5101934;28;20545;-69
2023/03/05 03:00:00;;;;;;;45.72;24.15;;;;;;;;;;5102169;28;20261;-69
2023/03/05 03:02:26;;;;;;;46.78;24.48;;;;;;;;;;5102392;28;20195;-69
2023/03/05 03:04:53;;;;;;;44.55;23.92;;;;;;;;;;5102181;28;20203;-69
2023/03/05 03:07:19;;;;;;;46.05;24.38;;;;;;;;;;5101974;28;20249;-69
2023/03/05 03:09:45;;;;;;;43.15;24.58;;;;;;;;;;5101982;28;20220;-69
2023/03/05 03:12:12;;;;;;;48.55;25.17;;;;;;;;;;5101956;28;20424;-69
2023/03/05 03:14:41;;;;;;;51.50;24.45;;;;;;;;;;5102210;28;20217;-69
2023/03/05 03:17:08;;;;;;;46.58;24.70;;;;;;;;;;5101861;28;20223;-69
2023/03/05 03:19:35;;;;;;;46.88;24.25;;;;;;;;;;5102122;28;20188;-69
2023/03/05 03:22:01;;;;;;;45.85;23.95;;;;;;;;;;5102078;28;20233;-69
2023/03/05 03:24:29;;;;;;;50.30;26.25;;;;;;;;;;5102015;28;20230;-69
2023/03/05 03:26:55;;;;;;;43.45;24.15;;;;;;;;;;5101619;28;20204;-69
2023/03/05 03:29:21;;;;;;;49.03;24.92;;;;;;;;;;5101963;28;20224;-69
2023/03/05 03:31:49;;;;;;;50.70;23.95;;;;;;;;;;5102070;28;20196;-68
2023/03/05 03:34:16;;;;;;;49.75;23.92;;;;;;;;;;5101904;28;20493;-69
2023/03/05 03:36:42;;;;;;;47.97;25.55;;;;;;;;;;5101752;28;20203;-68
2023/03/05 03:39:10;;;;;;;45.33;25.00;;;;;;;;;;5101581;28;20274;-69
2023/03/05 03:41:36;;;;;;;48.80;25.17;;;;;;;;;;5101828;28;20195;-69
2023/03/05 03:44:03;;;;;;;54.78;24.58;;;;;;;;;;5101998;28;20241;-69
2023/03/05 03:46:30;;;;;;;49.42;24.50;;;;;;;;;;5102702;28;20398;-68
2023/03/05 03:48:57;;;;;;;51.28;25.55;;;;;;;;;;5105498;28;20202;-68
2023/03/05 03:51:24;;;;;;;52.10;25.98;;;;;;;;;;5105484;28;20224;-69
2023/03/05 03:53:50;;;;;;;49.35;26.38;;;;;;;;;;5105657;28;20248;-69
2023/03/05 03:56:16;;;;;;;49.83;25.35;;;;;;;;;;5105741;28;20195;-69
2023/03/05 03:58:42;;;;;;;55.20;25.13;;;;;;;;;;5105319;28;20413;-69
2023/03/05 04:01:08;;;;;;;46.92;24.58;;;;;;;;;;5105492;28;20199;-69
2023/03/05 04:03:35;;;;;;;46.28;23.73;;;;;;;;;;5105386;28;20500;-69
2023/03/05 04:06:03;;;;;;;49.97;25.83;;;;;;;;;;5105417;28;20386;-69
2023/03/05 04:08:29;;;;;;;54.70;26.17;;;;;;;;;;5105213;28;20428;-69
2023/03/05 04:10:56;;;;;;;53.10;26.35;;;;;;;;;;5105547;28;20539;-69
2023/03/05 04:13:22;;;;;;;45.47;24.38;;;;;;;;;;5105461;28;20270;-69
2023/03/05 04:15:49;;;;;;;51.53;25.75;;;;;;;;;;5105218;28;20548;-69
2023/03/05 04:18:15;;;;;;;49.55;24.17;;;;;;;;;;5104977;28;20223;-69
2023/03/05 04:20:41;;;;;;;48.83;25.85;;;;;;;;;;5105242;28;20192;-69
2023/03/05 04:23:09;;;;;;;49.20;25.35;;;;;;;;;;5105239;28;20204;-69
2023/03/05 04:25:35;;;;;;;44.55;23.83;;;;;;;;;;5105256;28;20499;-69
2023/03/05 04:28:01;;;;;;;52.03;26.10;;;;;;;;;;5104888;28;20558;-69
2023/03/05 04:30:27;;;;;;;50.67;25.40;;;;;;;;;;5104976;28;20223;-69
2023/03/05 04:32:54;;;;;;;53.45;25.75;;;;;;;;;;5104812;28;20241;-67
2023/03/05 04:35:20;;;;;;;48.22;25.63;;;;;;;;;;5104696;28;20241;-67
2023/03/05 04:37:47;;;;;;;52.00;26.20;;;;;;;;;;5104626;28;20200;-67
2023/03/05 04:40:15;;;;;;;49.05;25.67;;;;;;;;;;5104912;28;20192;-67
2023/03/05 04:42:41;;;;;;;54.50;25.65;;;;;;;;;;5104876;28;20446;-67
2023/03/05 04:45:08;;;;;;;52.38;25.85;;;;;;;;;;5105015;28;20202;-67
2023/03/05 04:47:34;;;;;;;49.90;25.60;;;;;;;;;;5104561;28;20210;-67
2023/03/05 04:50:01;;;;;;;47.78;24.83;;;;;;;;;;5104539;28;20226;-67
2023/03/05 04:52:27;;;;;;;50.15;26.90;;;;;;;;;;5104569;28;20200;-67
2023/03/05 04:54:53;;;;;;;49.35;24.80;;;;;;;;;;5104355;28;20192;-67
2023/03/05 04:57:21;;;;;;;46.28;25.38;;;;;;;;;;5104025;28;20210;-67
2023/03/05 04:59:47;;;;;;;55.78;26.30;;;;;;;;;;5104372;28;20218;-67
2023/03/05 05:02:14;;;;;;;57.45;26.02;;;;;;;;;;5104376;28;20420;-69
2023/03/05 05:04:43;;;;;;;45.00;24.92;;;;;;;;;;5104190;28;20430;-67
2023/03/05 05:07:10;;;;;;;49.17;25.48;;;;;;;;;;5104065;28;20202;-69
2023/03/05 05:09:37;;;;;;;51.42;26.83;;;;;;;;;;5103993;28;20207;-67
2023/03/05 05:12:04;;;;;;;46.05;25.33;;;;;;;;;;5104063;28;20203;-67
2023/03/05 05:14:31;;;;;;;53.47;24.95;;;;;;;;;;5104031;28;20198;-67
2023/03/05 05:16:58;;;;;;;47.05;24.80;;;;;;;;;;5103935;28;20519;-68
2023/03/05 05:19:24;;;;;;;51.72;26.23;;;;;;;;;;5104322;28;20195;-68
2023/03/05 05:21:50;;;;;;;53.70;25.80;;;;;;;;;;5104127;28;20192;-68
2023/03/05 05:24:17;;;;;;;46.80;25.65;;;;;;;;;;5103795;28;20203;-67
2023/03/05 05:26:43;;;;;;;53.05;26.20;;;;;;;;;;5103835;28;20241;-68
2023/03/05 05:29:09;;;;;;;44.08;24.13;;;;;;;;;;5103664;28;20239;-68
2023/03/05 05:31:37;;;;;;;52.30;25.90;;;;;;;;;;5103644;28;20478;-68
2023/03/05 05:34:04;;;;;;;47.85;25.02;;;;;;;;;;5103751;28;20203;-68
2023/03/05 05:36:30;;;;;;;50.67;24.92;;;;;;;;;;5103724;28;20395;-68
2023/03/05 05:38:56;;;;;;;53.28;26.45;;;;;;;;;;5103548;28;20200;-68
2023/03/05 05:41:23;;;;;;;43.85;24.77;;;;;;;;;;5103439;28;20192;-70
2023/03/05 05:43:49;;;;;;;48.55;25.85;;;;;;;;;;5103652;28;20526;-70
2023/03/05 05:46:16;;;;;;;46.90;24.85;;;;;;;;;;5103285;28;20515;-70
2023/03/05 05:48:44;;;;;;;45.05;25.20;;;;;;;;;;5103393;28;20241;-70
2023/03/05 05:51:11;;;;;;;50.00;23.77;;;;;;;;;;5103423;28;20216;-70
2023/03/05 05:53:38;;;;;;;45.05;24.80;;;;;;;;;;5103483;28;20203;-70
2023/03/05 05:56:05;;;;;;;50.15;25.33;;;;;;;;;;5103340;28;20564;-70
2023/03/05 05:58:31;;;;;;;48.65;26.05;;;;;;;;;;5103087;28;20200;-70
2023/03/05 06:00:57;;;;;;;44.28;25.08;;;;;;;;;;5103230;28;20192;-70
2023/03/05 06:03:24;;;;;;;49.38;23.95;;;;;;;;;;5103219;28;20241;-70
2023/03/05 06:05:51;;;;;;;54.20;26.85;;;;;;;;;;5103281;28;20200;-70
2023/03/05 06:08:18;;;;;;;51.92;25.75;;;;;;;;;;5102825;28;20601;-70
2023/03/05 06:10:44;;;;;;;49.03;25.30;;;;;;;;;;5102599;28;20215;-70
2023/03/05 06:13:10;;;;;;;44.67;24.58;;;;;;;;;;5102934;28;20200;-70
2023/03/05 06:15:36;;;;;;;51.47;26.20;;;;;;;;;;5102769;28;20192;-70
2023/03/05 06:18:03;;;;;;;53.63;25.90;;;;;;;;;;5102954;28;20199;-70
2023/03/05 06:20:29;;;;;;;44.35;24.27;;;;;;;;;;5102936;28;20426;-70
2023/03/05 06:22:57;;;;;;;50.45;26.00;;;;;;;;;;5102797;28;20503;-70
2023/03/05 06:25:23;;;;;;;52.63;25.85;;;;;;;;;;5102835;28;20203;-70
2023/03/05 06:27:49;;;;;;;51.20;25.45;;;;;;;;;;5102339;28;20546;-70
2023/03/05 06:30:15;;;;;;;47.70;26.05;;;;;;;;;;5102811;28;20196;-70
2023/03/05 06:32:42;;;;;;;51.70;26.17;;;;;;;;;;5102883;28;20233;-69
2023/03/05 06:35:08;;;;;;;53.78;26.85;;;;;;;;;;5102530;28;20196;-70
2023/03/05 06:37:35;;;;;;;48.72;25.80;;;;;;;;;;5102709;28;20394;-70
2023/03/05 06:40:03;;;;;;;50.17;25.45;;;;;;;;;;5102701;28;20495;-70
2023/03/05 06:42:29;;;;;;;53.80;25.63;;;;;;;;;;5102454;28;20242;-70
2023/03/05 06:44:56;;;;;;;48.35;25.27;;;;;;;;;;5102651;28;20265;-70
2023/03/05 06:47:22;;;;;;;52.50;25.80;;;;;;;;;;5102335;28;20518;-70
2023/03/05 06:49:48;;;;;;;53.80;25.70;;;;;;;;;;5102523;28;20196;-69
2023/03/05 06:52:14;;;;;;;50.63;25.30;;;;;;;;;;5102244;28;20219;-70
2023/03/05 06:54:41;;;;;;;49.55;26.23;;;;;;;;;;5102378;28;20204;-69
2023/03/05 06:57:09;;;;;;;52.30;24.90;;;;;;;;;;5102054;28;20195;-69
2023/03/05 06:59:35;;;;;;;51.88;26.65;;;;;;;;;;5102437;28;20196;-69
2023/03/05 07:02:01;;;;;;;48.35;25.65;;;;;;;;;;5102341;28;20196;-69
2023/03/05 07:04:27;;;;;;;53.55;26.67;;;;;;;;;;5102339;28;20332;-69
2023/03/05 07:06:54;;;;;;;52.70;26.30;;;;;;;;;;5102539;28;20270;-69
2023/03/05 07:09:20;;;;;;;48.90;25.52;;;;;;;;;;5101911;28;20207;-69
2023/03/05 07:11:47;;;;;;;51.88;25.35;;;;;;;;;;5102028;28;20226;-70
2023/03/05 07:14:14;;;;;;;53.35;25.73;;;;;;;;;;5101996;28;20202;-69
2023/03/05 07:16:41;;;;;;;49.97;26.80;;;;;;;;;;5102051;28;20267;-69
2023/03/05 07:19:09;;;;;;;52.38;26.45;;;;;;;;;;5102003;28;20196;-69
2023/03/05 07:21:36;;;;;;;48.22;26.52;;;;;;;;;;5103212;28;20192;-69
2023/03/05 07:24:03;;;;;;;52.45;26.33;;;;;;;;;;5106401;28;20271;-69
2023/03/05 07:26:30;;;;;;;49.92;25.80;;;;;;;;;;5106333;28;20207;-69
2023/03/05 07:28:56;;;;;;;53.35;27.25;;;;;;;;;;5106009;28;20223;-70
2023/03/05 07:31:25;;;;;;;53.92;26.55;;;;;;;;;;5106170;28;20592;-69
2023/03/05 07:33:52;;;;;;;46.95;26.90;;;;;;;;;;5105917;28;20242;-69
2023/03/05 07:36:19;;;;;;;56.38;27.40;;;;;;;;;;5106155;28;20521;-69
2023/03/05 07:38:45;;;;;;;49.95;26.83;;;;;;;;;;5105760;28;20434;-69
2023/03/05 07:41:12;;;;;;;57.20;28.27;;;;;;;;;;5106261;28;20196;-69
2023/03/05 07:43:39;;;;;;;49.03;25.95;;;;;;;;;;5106000;28;20534;-69
2023/03/05 07:46:05;;;;;;;48.90;26.08;;;;;;;;;;5105998;28;20234;-69
2023/03/05 07:48:33;;;;;;;55.15;26.70;;;;;;;;;;5105558;28;20234;-69
2023/03/05 07:51:00;;;;;;;58.67;27.42;;;;;;;;;;5105717;28;20215;-70
2023/03/05 07:53:26;;;;;;;52.83;26.63;;;;;;;;;;5105820;28;20242;-70
2023/03/05 07:55:53;;;;;;;47.92;25.77;;;;;;;;;;5105925;28;20234;-70
2023/03/05 07:58:19;;;;;;;54.38;25.90;;;;;;;;;;5105641;28;20196;-69
2023/03/05 08:00:45;;;;;;;50.88;26.60;;;;;;;;;;5105946;28;20198;-69
2023/03/05 08:03:11;;;;;;;56.03;26.45;;;;;;;;;;5105741;28;20241;-69
2023/03/05 08:05:40;;;;;;;50.08;25.30;;;;;;;;;;5105736;28;20207;-69
2023/03/05 08:08:06;;;;;;;50.58;27.35;;;;;;;;;;5105402;28;20203;-69
2023/03/05 08:10:33;;;;;;;52.05;27.60;;;;;;;;;;5105717;28;20203;-69
2023/03/05 08:12:59;;;;;;;53.67;26.17;;;;;;;;;;5105747;28;20196;-69
2023/03/05 08:15:25;;;;;;;47.38;26.17;;;;;;;;;;5105582;28;20200;-69
2023/03/05 08:17:51;;;;;;;48.58;26.90;;;;;;;;;;5105216;28;20200;-69
2023/03/05 08:20:18;;;;;;;55.45;27.35;;;;;;;;;;5105479;28;20200;-69
2023/03/05 08:22:46;;;;;;;55.83;27.55;;;;;;;;;;5105364;28;20237;-69
2023/03/05 08:25:12;;;;;;;56.08;26.23;;;;;;;;;;5105484;28;20196;-69
2023/03/05 08:27:39;;;;;;;50.92;26.45;;;;;;;;;;5105211;28;20239;-69
2023/03/05 08:30:06;;;;;;;48.33;26.40;;;;;;;;;;5105323;28;20203;-69
2023/03/05 08:32:33;;;;;;;46.85;24.33;;;;;;;;;;5104512;28;20216;-69
2023/03/05 08:35:00;;;;;;;50.22;25.60;;;;;;;;;;5105158;28;20199;-69
2023/03/05 08:37:26;;;;;;;46.13;25.38;;;;;;;;;;5104964;28;20196;-69
2023/03/05 08:39:55;;;;;;;45.53;24.55;;;;;;;;;;5105261;28;20233;-69
2023/03/05 08:42:21;;;;;;;49.33;25.70;;;;;;;;;;5105257;28;20195;-68
2023/03/05 08:44:47;;;;;;;51.38;25.60;;;;;;;;;;5105015;28;20203;-69
2023/03/05 08:47:13;;;;;;;46.00;24.17;;;;;;;;;;5104723;28;20202;-69
2023/03/05 08:49:40;;;;;;;50.25;26.92;;;;;;;;;;5105058;28;20204;-69
2023/03/05 08:52:06;;;;;;;53.17;26.35;;;;;;;;;;5104687;28;20226;-69
2023/03/05 08:54:32;;;;;;;47.03;24.10;;;;;;;;;;5104712;28;20203;-69
2023/03/05 08:57:00;;;;;;;48.17;24.98;;;;;;;;;;5104677;28;20195;-69
2023/03/05 08:59:26;;;;;;;44.25;22.52;;;;;;;;;;5104678;28;20200;-69
2023/03/05 09:01:52;;;;;;;46.97;24.23;;;;;;;;;;5104822;28;20245;-69
2023/03/05 09:04:19;;;;;;;50.63;24.73;;;;;;;;;;5104509;28;20199;-69
2023/03/05 09:06:45;;;;;;;47.35;25.02;;;;;;;;;;5104639;28;20199;-69
2023/03/05 09:09:12;;;;;;;46.72;25.80;;;;;;;;;;5104387;28;20499;-68
2023/03/05 09:11:38;;;;;;;45.33;25.08;;;;;;;;;;5104525;28;20666;-69
2023/03/05 09:14:06;;;;;;;45.67;23.92;;;;;;;;;;5104619;28;20477;-69
2023/03/05 09:16:32;;;;;;;53.67;25.08;;;;;;;;;;5104443;28;20504;-69
2023/03/05 09:18:59;;;;;;;40.92;24.05;;;;;;;;;;5103996;28;20226;-69
2023/03/05 09:21:26;;;;;;;41.70;23.67;;;;;;;;;;5104400;28;20238;-69
2023/03/05 09:23:52;;;;;;;42.40;23.65;;;;;;;;;;5104409;28;20346;-69
2023/03/05 09:26:19;;;;;;;45.60;23.90;;;;;;;;;;5104266;28;20557;-69
2023/03/05 09:28:46;;;;;;;42.08;22.67;;;;;;;;;;5104356;28;20216;-69
2023/03/05 09:31:13;;;;;;;43.55;22.80;;;;;;;;;;5103806;28;20245;-69
2023/03/05 09:33:40;;;;;;;38.95;21.58;;;;;;;;;;5104152;28;20492;-69
2023/03/05 09:36:16;;;;;;;40.60;20.27;;;;;;;;;;5104314;28;20204;-69
2023/03/05 09:38:42;;;;;;;43.78;22.73;;;;;;;;;;5103848;28;20210;-69
2023/03/05 09:41:14;;;;;;;43.50;21.77;;;;;;;;;;5103951;28;20241;-69
2023/03/05 09:43:45;;;;;;;38.55;21.63;;;;;;;;;;5103250;28;20203;-68
2023/03/05 09:46:24;;;;;;;43.72;22.13;;;;;;;;;;5103788;28;20195;-69
2023/03/05 09:48:51;;;;;;;39.70;21.48;;;;;;;;;;5103758;28;20517;-69
2023/03/05 09:51:21;;;;;;;35.10;19.88;;;;;;;;;;5103842;28;20199;-69
2023/03/05 09:53:48;;;;;;;34.10;20.70;;;;;;;;;;5103510;28;20196;-69
2023/03/05 09:56:16;;;;;;;36.58;19.45;;;;;;;;;;5103539;28;20202;-69
2023/03/05 09:58:43;;;;;;;36.58;20.33;;;;;;;;;;5103466;28;20195;-69
2023/03/05 10:01:11;;;;;;;33.00;18.60;;;;;;;;;;5100164;28;20245;-69
2023/03/05 10:03:44;;;;;;;32.97;19.70;;;;;;;;;;5103568;28;20199;-69
2023/03/05 10:06:14;;;;;;;36.50;19.88;;;;;;;;;;5103563;28;20503;-70
2023/03/05 10:08:45;;;;;;;38.25;18.00;;;;;;;;;;5103125;28;20211;-69
2023/03/05 10:11:18;;;;;;;34.53;19.00;;;;;;;;;;5103610;28;20357;-69
2023/03/05 10:13:46;;;;;;;33.75;18.65;;;;;;;;;;5103383;28;20202;-69
2023/03/05 10:16:28;;;;;;;36.35;19.38;;;;;;;;;;5103221;28;20195;-69
2023/03/05 10:18:59;;;;;;;30.83;17.70;;;;;;;;;;5103548;28;20195;-69
2023/03/05 10:21:29;;;;;;;39.92;23.05;;;;;;;;;;5104122;28;20203;-69
2023/03/05 10:24:00;;;;;;;30.95;17.77;;;;;;;;;;5103870;28;20184;-69
2023/03/05 10:26:44;;;;;;;29.38;17.20;;;;;;;;;;5103383;28;20233;-69
2023/03/05 10:29:17;;;;;;;27.52;17.88;;;;;;;;;;5102883;28;20215;-61
2023/03/05 10:31:49;;;;;;;25.88;16.45;;;;;;;;;;5102783;28;20560;-61
2023/03/05 10:34:26;;;;;;;27.30;16.13;;;;;;;;;;5102845;28;20200;-61
2023/03/05 10:37:02;;;;;;;29.83;17.75;;;;;;;;;;5102668;28;20202;-61
2023/03/05 10:39:42;;;;;;;28.60;17.30;;;;;;;;;;5102771;28;20202;-60
2023/03/05 10:42:12;;;;;;;32.67;16.85;;;;;;;;;;5094748;28;20225;-61
2023/03/05 10:44:41;;;;;;;30.60;18.05;;;;;;;;;;5092542;28;20192;-60
2023/03/05 10:47:13;;;;;;;30.35;17.90;;;;;;;;;;5096716;28;20202;-60
2023/03/05 10:49:45;;;;;;;33.13;17.98;;;;;;;;;;5102849;28;20241;-60
2023/03/05 10:52:14;;;;;;;27.67;16.40;;;;;;;;;;5102572;28;20269;-61
2023/03/05 10:54:42;;;;;;;35.85;17.45;;;;;;;;;;5096830;28;20374;-61
2023/03/05 10:57:15;;;;;;;32.67;17.52;;;;;;;;;;5098562;28;20241;-60
2023/03/05 10:59:44;;;;;;;32.25;17.70;;;;;;;;;;5099453;28;20188;-60
2023/03/05 11:02:10;;;;;;;35.67;16.02;;;;;;;;;;5092170;28;20248;-60
2023/03/05 11:04:37;;;;;;;32.05;16.13;;;;;;;;;;5092812;28;20200;-61
2023/03/05 11:07:28;;;;;;;28.73;16.08;;;;;;;;;;5090730;28;20398;-61
2023/03/05 11:10:02;;;;;;;27.58;16.75;;;;;;;;;;5092460;28;20200;-61
2023/03/05 11:12:29;;;;;;;28.92;16.08;;;;;;;;;;5081918;28;20234;-61
2023/03/05 11:15:03;;;;;;;27.23;15.93;;;;;;;;;;5082227;28;20192;-61
2023/03/05 11:17:31;;;;;;;27.35;16.77;;;;;;;;;;5094126;28;20234;-61
2023/03/05 11:19:57;;;;;;;27.42;16.50;;;;;;;;;;5102466;28;20233;-61
2023/03/05 11:22:25;;;;;;;32.30;17.10;;;;;;;;;;5096429;28;20193;-61
2023/03/05 11:25:04;;;;;;;31.45;17.48;;;;;;;;;;5094092;28;20215;-61
2023/03/05 11:27:32;;;;;;;29.85;16.70;;;;;;;;;;5091999;28;20222;-61
2023/03/05 11:29:58;;;;;;;27.35;16.17;;;;;;;;;;5090515;28;20519;-61
2023/03/05 11:32:26;;;;;;;25.30;15.48;;;;;;;;;;5092223;28;20470;-61
2023/03/05 11:34:52;;;;;;;25.63;16.88;;;;;;;;;;5092802;28;20207;-61
2023/03/05 11:37:22;;;;;;;28.90;17.17;;;;;;;;;;5090573;28;20379;-61
2023/03/05 11:40:04;;;;;;;28.05;16.05;;;;;;;;;;5091560;28;20196;-61
2023/03/05 11:42:31;;;;;;;30.05;16.83;;;;;;;;;;5092130;28;20192;-61
2023/03/05 11:44:57;;;;;;;24.65;15.45;;;;;;;;;;5090724;28;20508;-61
2023/03/05 11:47:26;;;;;;;29.27;16.73;;;;;;;;;;5092675;28;20201;-61
2023/03/05 11:49:55;;;;;;;25.33;15.38;;;;;;;;;;5092944;28;20199;-61
2023/03/05 11:52:22;;;;;;;28.05;15.80;;;;;;;;;;5092234;28;20212;-61
2023/03/05 11:54:55;;;;;;;27.55;16.00;;;;;;;;;;5090464;28;20430;-61
2023/03/05 11:57:23;;;;;;;28.05;16.17;;;;;;;;;;5091107;28;20361;-61
2023/03/05 11:59:51;;;;;;;24.67;13.98;;;;;;;;;;5092188;28;20253;-61
2023/03/05 12:02:19;;;;;;;27.13;15.73;;;;;;;;;;5091622;28;20196;-61
2023/03/05 12:04:45;;;;;;;27.75;15.27;;;;;;;;;;5090526;28;20198;-61
2023/03/05 12:07:13;;;;;;;29.40;15.23;;;;;;;;;;5092403;28;20192;-60
2023/03/05 12:09:40;;;;;;;32.38;15.85;;;;;;;;;;5096391;28;20399;-61
2023/03/05 12:12:12;;;;;;;29.88;16.27;;;;;;;;;;5096383;28;20474;-61
2023/03/05 12:14:42;;;;;;;29.25;16.35;;;;;;;;;;5095463;28;20379;-61
2023/03/05 12:17:09;;;;;;;27.08;16.75;;;;;;;;;;5093425;28;20211;-61
2023/03/05 12:19:45;;;;;;;28.55;15.95;;;;;;;;;;5095041;28;20230;-61
2023/03/05 12:22:17;;;;;;;25.17;15.40;;;;;;;;;;5093776;28;20184;-61
2023/03/05 12:24:43;;;;;;;27.80;16.00;;;;;;;;;;5093968;28;20380;-61
2023/03/05 12:27:13;;;;;;;22.15;13.60;;;;;;;;;;5095035;28;20196;-61
2023/03/05 12:29:43;;;;;;;28.27;14.93;;;;;;;;;;5087411;28;20526;-61
2023/03/05 12:32:30;;;;;;;23.83;14.02;;;;;;;;;;5085037;28;20220;-61
2023/03/05 12:34:56;;;;;;;22.85;12.88;;;;;;;;;;5085304;28;20267;-61
2023/03/05 12:37:41;;;;;;;21.08;12.93;;;;;;;;;;5084898;28;20496;-61
2023/03/05 12:40:19;;;;;;;24.08;14.05;;;;;;;;;;5082414;28;20196;-61
2023/03/05 12:42:51;;;;;;;23.92;14.18;;;;;;;;;;5093872;28;20203;-61
2023/03/05 12:45:25;;;;;;;23.08;13.27;;;;;;;;;;5098814;28;20211;-61
2023/03/05 12:48:09;;;;;;;25.10;14.15;;;;;;;;;;5098783;28;20438;-61
2023/03/05 12:50:51;;;;;;;27.08;14.18;;;;;;;;;;5098784;28;20252;-63
2023/03/05 12:53:18;;;;;;;23.60;13.73;;;;;;;;;;5098594;28;20666;-61
2023/03/05 12:55:50;;;;;;;23.70;15.13;;;;;;;;;;5098845;28;20204;-61
2023/03/05 12:58:21;;;;;;;23.60;13.93;;;;;;;;;;5098896;28;20211;-61
2023/03/05 13:00:49;;;;;;;24.63;14.57;;;;;;;;;;5098939;28;20207;-61
2023/03/05 13:03:17;;;;;;;26.00;14.38;;;;;;;;;;5098730;28;20539;-61
2023/03/05 13:05:48;;;;;;;26.77;14.07;;;;;;;;;;5098545;28;20199;-62
2023/03/05 13:08:19;;;;;;;21.52;13.05;;;;;;;;;;5098508;28;20211;-61
2023/03/05 13:10:50;;;;;;;26.85;13.02;;;;;;;;;;5098468;28;20441;-62
2023/03/05 13:13:17;;;;;;;22.63;13.48;;;;;;;;;;5098458;28;20261;-61
2023/03/05 13:15:45;;;;;;;19.90;12.52;;;;;;;;;;5098701;28;20208;-61
2023/03/05 13:18:15;;;;;;;22.80;12.18;;;;;;;;;;5098254;28;20207;-61
2023/03/05 13:20:41;;;;;;;25.25;13.32;;;;;;;;;;5098346;28;20211;-61
2023/03/05 13:23:15;;;;;;;24.80;13.43;;;;;;;;;;5098284;28;20237;-61
2023/03/05 13:25:41;;;;;;;19.67;12.48;;;;;;;;;;5098518;28;20208;-61
2023/03/05 13:28:10;;;;;;;25.75;13.77;;;;;;;;;;5098156;28;20230;-61
2023/03/05 13:30:38;;;;;;;22.95;13.07;;;;;;;;;;5097497;28;20428;-61
2023/03/05 13:33:05;;;;;;;27.63;13.32;;;;;;;;;;5086894;28;20428;-61
2023/03/05 13:35:32;;;;;;;25.13;13.68;;;;;;;;;;5088565;28;20207;-61
2023/03/05 13:37:58;;;;;;;22.60;13.13;;;;;;;;;;5088636;28;20211;-61
2023/03/05 13:40:26;;;;;;;23.15;13.10;;;;;;;;;;5087875;28;20215;-61
2023/03/05 13:42:53;;;;;;;26.17;12.70;;;;;;;;;;5087741;28;20205;-61
2023/03/05 13:45:24;;;;;;;25.17;14.07;;;;;;;;;;5086076;28;20500;-61
2023/03/05 13:47:53;;;;;;;23.13;13.90;;;;;;;;;;5078885;28;20220;-61
2023/03/05 13:50:23;;;;;;;22.23;13.65;;;;;;;;;;5077296;28;20208;-61
2023/03/05 13:52:49;;;;;;;23.27;14.10;;;;;;;;;;5077029;28;20476;-62
2023/03/05 13:55:16;;;;;;;25.05;13.55;;;;;;;;;;5090354;28;20208;-61
2023/03/05 13:57:44;;;;;;;22.10;12.93;;;;;;;;;;5084230;28;20234;-61
2023/03/05 14:00:25;;;;;;;25.63;13.95;;;;;;;;;;5077235;28;20211;-62
2023/03/05 14:02:53;;;;;;;23.30;13.90;;;;;;;;;;5097132;28;20249;-62
2023/03/05 14:05:19;;;;;;;24.63;13.85;;;;;;;;;;5097795;28;20516;-62
2023/03/05 14:07:47;;;;;;;24.73;14.73;;;;;;;;;;5097297;28;20214;-62
2023/03/05 14:10:27;;;;;;;21.10;13.40;;;;;;;;;;5097509;28;20498;-60
2023/03/05 14:12:53;;;;;;;23.52;13.93;;;;;;;;;;5097250;28;20220;-60
2023/03/05 14:15:20;;;;;;;21.77;12.90;;;;;;;;;;5097192;28;20211;-61
2023/03/05 14:17:48;;;;;;;22.90;12.88;;;;;;;;;;5097312;28;20282;-61
2023/03/05 14:20:21;;;;;;;23.88;13.60;;;;;;;;;;5097836;28;20211;-62